createdAt,value
2023-02-06T00:00:44.885Z,20.05
2023-02-06T00:01:44.941Z,20.11
2023-02-06T00:02:45.010Z,20.05
2023-02-06T00:03:45.064Z,20.06
2023-02-06T00:04:45.072Z,20.05
2023-02-06T00:05:45.184Z,20.06
2023-02-06T00:06:45.166Z,20.03
2023-02-06T00:10:45.339Z,20.05
2023-02-06T00:11:45.374Z,20.06
2023-02-06T00:12:45.426Z,20.01
2023-02-06T00:13:45.487Z,20.03
2023-02-06T00:14:45.470Z,20.06
2023-02-06T00:15:45.595Z,20.06
2023-02-06T00:16:45.620Z,20.03
2023-02-06T00:17:45.613Z,20.05
2023-02-06T00:18:45.647Z,20.08
2023-02-06T00:19:45.706Z,20.08
2023-02-06T00:20:45.748Z,20.05
2023-02-06T00:21:45.775Z,20.07
2023-02-06T00:22:45.887Z,19.91
2023-02-06T00:23:45.861Z,20.02
2023-02-06T00:24:45.857Z,20.05
2023-02-06T00:25:45.913Z,19.89
2023-02-06T00:26:45.926Z,19.98
2023-02-06T00:27:45.985Z,19.96
2023-02-06T00:28:45.962Z,19.95
2023-02-06T00:29:45.994Z,19.93
2023-02-06T00:30:46.066Z,19.96
2023-02-06T00:31:46.043Z,19.96
2023-02-06T00:32:46.044Z,19.92
2023-02-06T00:33:45.995Z,19.92
2023-02-06T00:34:46.020Z,19.94
2023-02-06T00:35:46.015Z,19.91
2023-02-06T00:36:46.033Z,19.89
2023-02-06T00:37:46.029Z,19.83
2023-02-06T00:40:46.057Z,19.85
2023-02-06T00:41:46.097Z,19.87
2023-02-06T00:42:46.095Z,19.85
2023-02-06T00:43:46.186Z,19.82
2023-02-06T00:44:46.229Z,19.80
2023-02-06T00:45:46.246Z,19.81
2023-02-06T00:46:46.368Z,19.80
2023-02-06T00:47:46.383Z,19.80
2023-02-06T00:48:46.428Z,19.78
2023-02-06T00:49:46.491Z,19.75
2023-02-06T00:50:46.520Z,19.75
2023-02-06T00:51:46.605Z,19.75
2023-02-06T00:52:46.681Z,19.68
2023-02-06T00:53:47.476Z,19.71
2023-02-06T00:54:46.722Z,19.69
2023-02-06T00:55:46.782Z,19.73
2023-02-06T00:56:46.833Z,19.74
2023-02-06T00:58:46.933Z,19.70
2023-02-06T00:59:46.972Z,19.61
2023-02-06T01:00:47.057Z,19.68
2023-02-06T01:35:48.973Z,19.56
2023-02-06T01:36:48.969Z,19.54
2023-02-06T01:37:49.036Z,19.50
2023-02-06T01:38:49.063Z,19.50
2023-02-06T01:39:49.134Z,19.53
2023-02-06T01:40:49.136Z,19.52
2023-02-06T01:41:49.222Z,19.50
2023-02-06T01:42:49.252Z,19.50
2023-02-06T03:35:52.485Z,19.35
2023-02-06T03:36:52.483Z,19.35
2023-02-06T03:37:52.510Z,19.37
2023-02-06T03:38:52.493Z,19.34
2023-02-06T03:39:52.500Z,19.37
2023-02-06T03:40:52.482Z,19.34
2023-02-06T03:41:52.535Z,19.32
2023-02-06T03:42:52.548Z,19.35
2023-02-06T03:43:52.563Z,19.37
2023-02-06T03:44:52.556Z,19.38
2023-02-06T03:45:52.583Z,19.35
2023-02-06T03:46:52.531Z,19.35
2023-02-06T03:47:52.585Z,19.35
2023-02-06T03:48:52.709Z,19.34
2023-02-06T03:49:52.700Z,19.35
2023-02-06T03:50:52.731Z,19.35
2023-02-06T03:51:52.710Z,19.37
2023-02-06T03:52:52.689Z,19.33
2023-02-06T03:53:52.701Z,19.34
2023-02-06T03:54:52.782Z,19.34
2023-02-06T03:55:52.734Z,19.28
2023-02-06T03:56:52.738Z,19.31
2023-02-06T03:57:52.815Z,19.32
2023-02-06T03:58:52.783Z,19.34
2023-02-06T03:59:52.769Z,19.32
2023-02-06T04:00:52.806Z,19.36
2023-02-06T04:01:52.825Z,19.33
2023-02-06T04:02:52.806Z,19.35
2023-02-06T04:03:52.846Z,19.37
2023-02-06T04:04:52.815Z,19.32
2023-02-06T04:05:52.821Z,19.33
2023-02-06T04:06:52.883Z,19.33
2023-02-06T04:07:52.899Z,19.29
2023-02-06T04:08:52.894Z,19.34
2023-02-06T04:09:52.926Z,19.39
2023-02-06T04:10:52.890Z,19.33
2023-02-06T04:11:52.901Z,19.33
2023-02-06T04:12:52.982Z,19.31
2023-02-06T04:13:53.068Z,19.34
2023-02-06T04:14:53.159Z,19.31
2023-02-06T04:15:53.257Z,19.33
2023-02-06T04:16:53.352Z,19.36
2023-02-06T04:18:00.589Z,19.33
2023-02-06T04:18:54.436Z,19.33
2023-02-06T04:19:53.443Z,19.34
2023-02-06T04:20:53.423Z,19.31
2023-02-06T04:21:53.416Z,19.30
2023-02-06T04:22:53.427Z,19.35
2023-02-06T04:23:53.385Z,19.33
2023-02-06T04:24:53.365Z,19.28
2023-02-06T04:25:53.374Z,19.36
2023-02-06T04:26:53.414Z,19.36
2023-02-06T04:27:53.420Z,19.31
2023-02-06T04:28:53.381Z,19.30
2023-02-06T04:29:53.323Z,19.27
2023-02-06T04:30:53.386Z,19.29
2023-02-06T04:31:53.342Z,19.29
2023-02-06T04:32:53.345Z,19.27
2023-02-06T04:33:53.358Z,19.30
2023-02-06T04:34:53.312Z,19.33
2023-02-06T04:35:53.314Z,19.35
2023-02-06T04:36:53.313Z,19.31
2023-02-06T04:37:53.274Z,19.30
2023-02-06T04:38:53.319Z,19.31
2023-02-06T04:39:53.297Z,19.31
2023-02-06T04:40:53.278Z,19.33
2023-02-06T04:41:53.272Z,19.31
2023-02-06T04:42:53.270Z,19.33
2023-02-06T04:43:53.256Z,19.31
2023-02-06T04:44:53.222Z,19.27
2023-02-06T04:45:53.250Z,19.31
2023-02-06T04:46:53.231Z,19.30
2023-02-06T04:47:53.248Z,19.30
2023-02-06T04:48:53.218Z,19.29
2023-02-06T04:49:53.194Z,19.31
2023-02-06T04:50:53.191Z,19.31
2023-02-06T04:51:53.188Z,19.33
2023-02-06T04:52:53.181Z,19.35
2023-02-06T04:53:53.207Z,19.33
2023-02-06T04:54:53.203Z,19.36
2023-02-06T04:55:53.235Z,19.37
2023-02-06T04:56:53.277Z,19.36
2023-02-06T04:57:53.252Z,19.30
2023-02-06T04:58:53.295Z,19.34
2023-02-06T04:59:53.264Z,19.37
2023-02-06T05:00:53.285Z,19.36
2023-02-06T05:01:53.360Z,19.35
2023-02-06T05:02:53.461Z,19.37
2023-02-06T05:03:53.434Z,19.37
2023-02-06T05:04:53.421Z,19.34
2023-02-06T05:05:53.437Z,19.39
2023-02-06T05:06:53.456Z,19.35
2023-02-06T05:07:53.489Z,19.38
2023-02-06T05:08:53.480Z,19.35
2023-02-06T05:09:53.526Z,19.45
2023-02-06T05:10:53.568Z,19.43
2023-02-06T05:11:53.542Z,19.43
2023-02-06T05:12:53.611Z,19.40
2023-02-06T05:13:53.593Z,19.43
2023-02-06T05:14:53.595Z,19.43
2023-02-06T05:15:53.720Z,19.43
2023-02-06T05:16:53.728Z,19.46
2023-02-06T05:17:53.689Z,19.46
2023-02-06T05:18:53.724Z,19.46
2023-02-06T05:19:53.722Z,19.49
2023-02-06T05:20:53.767Z,19.44
2023-02-06T05:21:53.772Z,19.38
2023-02-06T05:22:53.821Z,19.50
2023-02-06T05:23:53.868Z,19.50
2023-02-06T05:24:53.897Z,19.52
2023-02-06T05:25:53.899Z,19.45
2023-02-06T05:26:53.916Z,19.51
2023-02-06T05:27:53.974Z,19.48
2023-02-06T05:28:54.012Z,19.47
2023-02-06T05:29:54.003Z,19.47
2023-02-06T05:30:54.112Z,19.44
2023-02-06T05:31:54.119Z,19.51
2023-02-06T05:32:54.116Z,19.51
2023-02-06T05:33:54.156Z,19.47
2023-02-06T05:34:54.176Z,19.45
2023-02-06T05:35:54.231Z,19.56
2023-02-06T05:36:54.256Z,19.50
2023-02-06T05:37:54.290Z,19.56
2023-02-06T05:38:54.346Z,19.53
2023-02-06T05:39:54.379Z,19.54
2023-02-06T05:40:54.410Z,19.53
2023-02-06T05:41:54.472Z,19.54
2023-02-06T05:42:54.491Z,19.54
2023-02-06T05:43:54.545Z,19.51
2023-02-06T05:44:54.570Z,19.51
2023-02-06T05:45:54.621Z,19.57
2023-02-06T05:46:54.641Z,19.51
2023-02-06T05:47:54.662Z,19.54
2023-02-06T05:48:54.706Z,19.53
2023-02-06T05:49:54.752Z,19.51
2023-02-06T05:50:54.804Z,19.54
2023-02-06T05:51:54.804Z,19.51
2023-02-06T05:52:54.905Z,19.53
2023-02-06T05:53:54.892Z,19.53
2023-02-06T05:54:54.937Z,19.53
2023-02-06T05:55:54.982Z,19.53
2023-02-06T05:56:55.013Z,19.53
2023-02-06T05:57:55.060Z,19.53
2023-02-06T05:58:55.174Z,19.54
2023-02-06T05:59:55.122Z,19.53
2023-02-06T06:01:02.742Z,19.53
2023-02-06T06:01:55.176Z,19.51
2023-02-06T06:02:55.165Z,19.51
2023-02-06T06:03:55.174Z,19.50
2023-02-06T06:04:55.171Z,19.57
2023-02-06T06:05:55.124Z,19.53
2023-02-06T06:06:55.154Z,19.56
2023-02-06T06:07:55.138Z,19.53
2023-02-06T06:08:55.130Z,19.57
2023-02-06T06:09:55.143Z,19.54
2023-02-06T06:10:55.121Z,19.51
2023-02-06T06:11:55.131Z,19.57
2023-02-06T06:12:55.147Z,19.51
2023-02-06T06:13:55.115Z,19.50
2023-02-06T06:14:55.098Z,19.53
2023-02-06T06:15:55.102Z,19.53
2023-02-06T06:16:55.066Z,19.51
2023-02-06T06:17:55.097Z,19.56
2023-02-06T06:18:55.101Z,19.50
2023-02-06T06:19:55.118Z,19.56
2023-02-06T06:20:55.141Z,19.56
2023-02-06T06:21:57.814Z,19.56
2023-02-06T06:22:55.204Z,19.57
2023-02-06T06:23:55.215Z,19.53
2023-02-06T06:24:55.228Z,19.54
2023-02-06T06:25:55.193Z,19.51
2023-02-06T06:26:55.237Z,19.57
2023-02-06T06:27:55.216Z,19.56
2023-02-06T06:28:55.184Z,19.53
2023-02-06T06:29:55.155Z,19.54
2023-02-06T06:30:55.174Z,19.56
2023-02-06T06:31:55.228Z,19.57
2023-02-06T06:32:55.730Z,19.63
2023-02-06T06:33:55.227Z,19.64
2023-02-06T06:34:55.157Z,19.54
2023-02-06T06:35:55.166Z,19.74
2023-02-06T06:36:55.179Z,19.25
2023-02-06T06:37:55.129Z,19.03
2023-02-06T06:38:55.775Z,19.13
2023-02-06T06:39:55.157Z,19.13
2023-02-06T06:40:55.108Z,18.84
2023-02-06T06:41:55.098Z,18.69
2023-02-06T06:42:55.114Z,18.61
2023-02-06T06:43:55.294Z,18.87
2023-02-06T06:44:55.067Z,19.06
2023-02-06T06:46:55.065Z,20.00
2023-02-06T06:47:55.037Z,20.21
2023-02-06T06:48:55.280Z,20.44
2023-02-06T06:49:55.033Z,20.67
2023-02-06T06:50:54.985Z,20.97
2023-02-06T06:51:55.027Z,21.15
2023-02-06T06:52:55.007Z,21.40
2023-02-06T06:53:55.251Z,21.54
2023-02-06T06:54:54.966Z,21.99
2023-02-06T06:55:54.970Z,22.10
2023-02-06T06:57:54.994Z,22.56
2023-02-06T06:58:54.992Z,22.74
2023-02-06T06:59:54.943Z,23.08
2023-02-06T07:00:54.992Z,23.20
2023-02-06T07:01:54.959Z,23.35
2023-02-06T07:02:54.969Z,23.64
2023-02-06T07:03:54.926Z,23.72
2023-02-06T07:04:54.949Z,23.88
2023-02-06T07:05:54.892Z,24.13
2023-02-06T07:06:54.944Z,24.20
2023-02-06T07:07:54.901Z,24.35
2023-02-06T07:08:54.903Z,24.41
2023-02-06T07:09:54.892Z,24.58
2023-02-06T07:10:54.860Z,24.62
2023-02-06T07:11:54.870Z,24.75
2023-02-06T07:12:54.885Z,24.95
2023-02-06T07:13:54.835Z,25.02
2023-02-06T07:14:54.897Z,25.19
2023-02-06T07:15:54.813Z,25.25
2023-02-06T07:16:54.869Z,25.45
2023-02-06T07:17:54.874Z,25.56
2023-02-06T07:18:54.827Z,25.73
2023-02-06T07:19:54.874Z,25.76
2023-02-06T07:20:54.886Z,25.96
2023-02-06T07:21:54.929Z,26.08
2023-02-06T07:22:54.979Z,26.23
2023-02-06T07:23:55.030Z,26.28
2023-02-06T07:24:55.067Z,26.42
2023-02-06T07:25:55.109Z,26.54
2023-02-06T07:26:55.183Z,26.69
2023-02-06T07:27:55.255Z,26.86
2023-02-06T07:28:55.248Z,26.96
2023-02-06T07:29:55.817Z,27.22
2023-02-06T07:30:55.351Z,27.09
2023-02-06T07:31:55.423Z,27.29
2023-02-06T07:32:55.374Z,27.43
2023-02-06T07:33:55.434Z,27.52
2023-02-06T07:34:55.448Z,27.69
2023-02-06T07:35:55.453Z,28.14
2023-02-06T07:36:55.485Z,27.99
2023-02-06T07:37:55.514Z,28.12
2023-02-06T07:38:56.305Z,28.41
2023-02-06T07:39:55.616Z,28.41
2023-02-06T07:40:55.588Z,28.18
2023-02-06T07:41:55.645Z,26.35
2023-02-06T07:42:55.713Z,24.11
2023-02-06T07:43:55.727Z,22.07
2023-02-06T07:44:55.859Z,22.64
2023-02-06T07:45:55.848Z,20.83
2023-02-06T07:46:55.938Z,21.95
2023-02-06T07:47:55.902Z,22.37
2023-02-06T07:48:55.963Z,22.34
2023-02-06T07:49:56.098Z,23.84
2023-02-06T07:50:56.075Z,23.84
2023-02-06T07:51:56.160Z,23.85
2023-02-06T07:52:56.160Z,23.85
2023-02-06T07:53:56.273Z,23.88
2023-02-06T07:54:56.269Z,23.91
2023-02-06T07:55:56.359Z,23.95
2023-02-06T07:56:56.349Z,24.12
2023-02-06T07:57:56.439Z,24.06
2023-02-06T07:58:56.412Z,24.14
2023-02-06T07:59:56.409Z,24.08
2023-02-06T08:00:56.463Z,24.08
2023-02-06T08:01:56.418Z,24.14
2023-02-06T08:02:56.452Z,24.22
2023-02-06T08:03:56.494Z,24.19
2023-02-06T08:04:56.786Z,24.30
2023-02-06T08:05:56.558Z,24.31
2023-02-06T08:06:56.567Z,24.37
2023-02-06T08:07:56.567Z,24.35
2023-02-06T08:08:56.581Z,24.40
2023-02-06T08:09:56.548Z,24.39
2023-02-06T08:10:56.554Z,24.40
2023-02-06T08:11:56.663Z,24.39
2023-02-06T08:12:56.749Z,24.39
2023-02-06T08:13:56.842Z,24.44
2023-02-06T08:14:56.889Z,24.36
2023-02-06T08:15:56.955Z,24.45
2023-02-06T08:16:57.017Z,24.44
2023-02-06T08:17:56.942Z,24.52
2023-02-06T08:18:56.986Z,24.55
2023-02-06T08:19:57.021Z,24.55
2023-02-06T08:20:57.037Z,24.52
2023-02-06T08:21:57.037Z,24.57
2023-02-06T08:22:57.224Z,24.59
2023-02-06T08:23:57.192Z,24.59
2023-02-06T08:24:57.297Z,24.59
2023-02-06T08:25:57.348Z,24.62
2023-02-06T08:26:57.409Z,24.67
2023-02-06T08:27:57.531Z,24.61
2023-02-06T08:28:57.572Z,24.72
2023-02-06T08:29:57.804Z,24.86
2023-02-06T08:30:57.704Z,24.91
2023-02-06T08:31:57.717Z,24.97
2023-02-06T08:32:57.704Z,25.21
2023-02-06T08:33:57.717Z,25.24
2023-02-06T08:34:57.816Z,25.19
2023-02-06T08:35:57.717Z,25.36
2023-02-06T08:36:57.731Z,25.19
2023-02-06T08:37:57.732Z,23.29
2023-02-06T08:38:57.772Z,23.42
2023-02-06T08:39:57.775Z,23.48
2023-02-06T08:40:57.833Z,24.05
2023-02-06T08:41:57.856Z,23.55
2023-02-06T08:42:57.943Z,23.48
2023-02-06T08:43:57.986Z,23.94
2023-02-06T08:44:58.047Z,23.84
2023-02-06T08:45:58.088Z,23.56
2023-02-06T08:47:09.335Z,23.05
2023-02-06T08:47:59.117Z,21.68
2023-02-06T08:48:58.064Z,22.68
2023-02-06T08:49:58.083Z,21.74
2023-02-06T08:50:58.061Z,22.69
2023-02-06T08:51:58.130Z,22.80
2023-02-06T08:52:58.043Z,22.48
2023-02-06T08:53:58.057Z,21.77
2023-02-06T08:54:58.061Z,21.74
2023-02-06T08:55:58.005Z,21.45
2023-02-06T08:56:58.030Z,22.43
2023-02-06T08:57:58.075Z,22.22
2023-02-06T08:58:58.139Z,21.75
2023-02-06T08:59:58.348Z,20.93
2023-02-06T09:00:58.207Z,21.08
2023-02-06T09:01:58.233Z,20.37
2023-02-06T09:02:58.291Z,19.96
2023-02-06T09:03:58.395Z,20.47
2023-02-06T09:04:58.446Z,19.90
2023-02-06T09:06:05.580Z,21.35
2023-02-06T09:06:59.543Z,21.47
2023-02-06T09:07:58.472Z,21.33
2023-02-06T09:08:58.507Z,21.32
2023-02-06T09:09:58.480Z,21.15
2023-02-06T09:10:58.455Z,21.38
2023-02-06T09:11:58.443Z,21.44
2023-02-06T09:12:58.457Z,21.49
2023-02-06T09:13:58.453Z,21.61
2023-02-06T09:14:58.430Z,21.87
2023-02-06T09:15:58.486Z,21.89
2023-02-06T09:16:58.494Z,22.05
2023-02-06T09:17:58.555Z,22.19
2023-02-06T09:18:58.565Z,22.22
2023-02-06T09:19:58.590Z,22.33
2023-02-06T09:20:58.602Z,22.39
2023-02-06T09:21:58.568Z,22.59
2023-02-06T09:22:58.641Z,22.71
2023-02-06T09:23:58.691Z,22.74
2023-02-06T09:24:59.437Z,22.92
2023-02-06T09:25:58.655Z,23.17
2023-02-06T09:27:00.430Z,23.24
2023-02-06T09:27:58.767Z,23.39
2023-02-06T09:28:58.803Z,23.47
2023-02-06T09:29:58.895Z,23.63
2023-02-06T09:30:59.423Z,23.68
2023-02-06T09:31:59.018Z,23.85
2023-02-06T09:32:59.112Z,24.08
2023-02-06T09:33:59.214Z,24.28
2023-02-06T09:34:59.369Z,24.14
2023-02-06T09:35:59.202Z,24.08
2023-02-06T09:36:59.290Z,24.12
2023-02-06T09:37:59.261Z,24.07
2023-02-06T09:38:59.337Z,24.03
2023-02-06T09:39:59.431Z,23.99
2023-02-06T09:40:59.857Z,23.96
2023-02-06T09:41:59.486Z,23.95
2023-02-06T09:42:59.556Z,23.88
2023-02-06T09:43:59.632Z,23.86
2023-02-06T09:44:59.665Z,23.85
2023-02-06T09:45:59.740Z,23.80
2023-02-06T09:46:59.779Z,23.83
2023-02-06T09:47:59.832Z,23.73
2023-02-06T09:48:59.914Z,23.69
2023-02-06T09:49:59.957Z,23.70
2023-02-06T09:51:00.321Z,23.63
2023-02-06T09:52:00.112Z,23.62
2023-02-06T09:53:00.155Z,24.05
2023-02-06T09:54:00.245Z,24.12
2023-02-06T09:55:00.249Z,22.95
2023-02-06T09:56:00.369Z,22.72
2023-02-06T09:57:00.401Z,22.64
2023-02-06T09:58:00.466Z,23.27
2023-02-06T09:59:00.624Z,23.96
2023-02-06T10:00:00.711Z,23.21
2023-02-06T10:01:01.104Z,22.50
2023-02-06T10:16:01.432Z,18.27
2023-02-06T10:17:01.174Z,18.32
2023-02-06T10:18:01.158Z,18.39
2023-02-06T10:19:01.172Z,18.96
2023-02-06T10:20:01.198Z,20.01
2023-02-06T10:21:01.409Z,18.78
2023-02-06T10:22:01.268Z,20.64
2023-02-06T10:25:01.324Z,21.19
2023-02-06T10:26:01.386Z,20.59
2023-02-06T10:27:01.374Z,19.65
2023-02-06T10:28:01.467Z,20.36
2023-02-06T10:29:01.457Z,20.47
2023-02-06T10:30:01.467Z,20.51
2023-02-06T10:31:01.710Z,19.15
2023-02-06T10:32:01.657Z,20.24
2023-02-06T10:33:01.594Z,20.50
2023-02-06T10:34:01.687Z,20.52
2023-02-06T10:35:01.691Z,20.63
2023-02-06T10:36:01.724Z,20.45
2023-02-06T10:37:01.915Z,20.34
2023-02-06T10:38:01.842Z,19.57
2023-02-06T10:39:01.910Z,17.87
2023-02-06T10:40:02.147Z,17.55
2023-02-06T10:41:02.458Z,19.71
2023-02-06T10:44:02.179Z,17.85
2023-02-06T10:45:19.090Z,18.73
2023-02-06T10:46:03.222Z,19.83
2023-02-06T10:47:02.650Z,19.61
2023-02-06T10:48:02.266Z,19.75
2023-02-06T10:49:02.273Z,19.40
2023-02-06T10:50:02.192Z,20.08
2023-02-06T10:52:02.392Z,20.43
2023-02-06T10:53:02.184Z,20.59
2023-02-06T10:55:02.259Z,20.57
2023-02-06T10:56:03.861Z,20.33
2023-02-06T10:57:57.102Z,20.48
2023-02-06T10:58:57.027Z,20.47
2023-02-06T10:59:57.005Z,20.30
2023-02-06T11:00:57.152Z,20.47
2023-02-06T11:01:58.653Z,20.21
2023-02-06T11:03:06.764Z,19.74
2023-02-06T11:03:58.134Z,18.67
2023-02-06T11:04:57.128Z,19.40
2023-02-06T11:05:57.123Z,19.99
2023-02-06T11:06:57.141Z,19.75
2023-02-06T11:07:57.098Z,19.70
2023-02-06T11:08:57.100Z,19.60
2023-02-06T11:09:57.106Z,19.77
2023-02-06T11:10:57.124Z,19.68
2023-02-06T11:11:57.246Z,19.72
2023-02-06T11:12:57.096Z,19.78
2023-02-06T11:13:57.028Z,19.71
2023-02-06T11:14:57.046Z,19.71
2023-02-06T11:15:57.029Z,19.78
2023-02-06T11:16:57.233Z,19.67
2023-02-06T11:17:57.054Z,19.67
2023-02-06T11:18:57.153Z,19.69
2023-02-06T11:19:57.654Z,19.73
2023-02-06T11:20:57.242Z,19.60
2023-02-06T11:21:57.772Z,19.57
2023-02-06T11:22:57.271Z,19.47
2023-02-06T11:23:57.276Z,19.27
2023-02-06T11:24:57.327Z,19.40
2023-02-06T11:25:58.260Z,19.28
2023-02-06T11:26:57.455Z,19.68
2023-02-06T11:27:57.483Z,18.93
2023-02-06T11:29:57.534Z,18.77
2023-02-06T11:30:57.677Z,18.49
2023-02-06T11:31:57.691Z,19.21
2023-02-06T11:34:57.764Z,18.61
2023-02-06T11:35:57.959Z,17.23
2023-02-06T11:36:58.252Z,15.71
2023-02-06T11:37:57.904Z,18.06
2023-02-06T11:38:57.955Z,18.98
2023-02-06T11:39:57.928Z,20.01
2023-02-06T11:40:57.945Z,20.23
2023-02-06T11:41:58.289Z,20.34
2023-02-06T11:42:58.090Z,20.20
2023-02-06T11:43:58.060Z,20.29
2023-02-06T11:44:58.075Z,19.74
2023-02-06T11:45:58.165Z,19.67
2023-02-06T11:46:58.093Z,19.82
2023-02-06T11:47:58.124Z,19.93
2023-02-06T11:48:58.159Z,19.61
2023-02-06T11:49:58.246Z,20.01
2023-02-06T11:50:58.277Z,20.10
2023-02-06T11:51:58.357Z,20.13
2023-02-06T11:52:58.223Z,20.40
2023-02-06T11:53:58.232Z,19.93
2023-02-06T11:54:58.237Z,20.02
2023-02-06T11:55:58.304Z,19.94
2023-02-06T12:06:00.361Z,14.80
2023-02-06T12:06:58.780Z,16.11
2023-02-06T12:08:58.590Z,17.31
2023-02-06T12:11:58.559Z,17.93
2023-02-06T12:13:58.661Z,17.96
2023-02-06T12:14:58.562Z,15.50
2023-02-06T12:15:58.549Z,15.16
2023-02-06T12:16:58.785Z,16.33
2023-02-06T12:18:58.545Z,18.35
2023-02-06T12:19:58.529Z,18.69
2023-02-06T12:20:58.481Z,18.75
2023-02-06T12:24:58.449Z,18.51
2023-02-06T12:25:58.462Z,17.71
2023-02-06T12:26:58.528Z,16.19
2023-02-06T15:05:45.509Z,24.94
2023-02-06T15:06:45.493Z,24.86
2023-02-06T15:07:45.476Z,24.77
2023-02-06T15:08:45.491Z,24.71
2023-02-06T15:09:45.480Z,24.78
2023-02-06T15:10:45.444Z,24.66
2023-02-06T15:11:45.494Z,24.67
2023-02-06T15:12:45.461Z,24.66
2023-02-06T15:13:45.453Z,24.60
2023-02-06T15:14:45.409Z,24.57
2023-02-06T15:15:45.420Z,24.49
2023-02-06T15:16:45.442Z,24.39
2023-02-06T15:17:45.434Z,24.50
2023-02-06T15:18:45.433Z,24.47
2023-02-06T15:19:45.388Z,24.40
2023-02-06T15:20:45.372Z,24.31
2023-02-06T15:21:45.410Z,24.32
2023-02-06T15:23:45.368Z,24.21
2023-02-06T15:24:45.368Z,24.16
2023-02-06T15:25:45.428Z,24.14
2023-02-06T15:26:45.432Z,24.13
2023-02-06T15:27:45.472Z,24.08
2023-02-06T15:28:45.471Z,24.12
2023-02-06T15:29:45.522Z,24.12
2023-02-06T15:30:45.567Z,24.04
2023-02-06T15:31:45.601Z,24.02
2023-02-06T15:32:45.593Z,23.99
2023-02-06T15:33:45.609Z,23.95
2023-02-06T15:34:45.663Z,23.97
2023-02-06T15:35:45.662Z,23.90
2023-02-06T15:36:45.720Z,23.92
2023-02-06T15:37:45.785Z,23.77
2023-02-06T15:38:45.784Z,23.75
2023-02-06T15:39:45.773Z,23.74
2023-02-06T15:40:45.876Z,23.63
2023-02-06T15:41:45.835Z,23.72
2023-02-06T15:42:45.920Z,23.64
2023-02-06T15:43:45.931Z,23.63
2023-02-06T15:44:45.945Z,23.57
2023-02-06T15:45:46.045Z,23.64
2023-02-06T15:46:48.389Z,23.61
2023-02-06T15:47:46.037Z,23.54
2023-02-06T15:48:45.981Z,23.55
2023-02-06T15:49:46.032Z,23.63
2023-02-06T15:50:46.000Z,23.64
2023-02-06T15:51:45.969Z,23.63
2023-02-06T15:52:45.961Z,23.54
2023-02-06T15:53:48.385Z,23.50
2023-02-06T15:54:46.152Z,23.42
2023-02-06T15:55:46.172Z,23.33
2023-02-06T15:56:46.179Z,23.20
2023-02-06T15:57:46.168Z,23.24
2023-02-06T15:58:46.191Z,23.45
2023-02-06T15:59:46.228Z,23.48
2023-02-06T16:00:46.274Z,23.42
2023-02-06T18:01:52.453Z,22.05
2023-02-06T18:02:52.502Z,22.01
2023-02-06T18:03:52.492Z,21.93
2023-02-06T18:04:52.565Z,22.11
2023-02-06T18:05:52.630Z,21.95
2023-02-06T18:06:52.642Z,21.95
2023-02-06T18:07:52.759Z,22.14
2023-02-06T18:08:52.778Z,21.99
2023-02-06T18:09:52.845Z,22.05
2023-02-06T18:10:52.892Z,21.99
2023-02-06T18:11:52.911Z,21.87
2023-02-06T18:12:52.995Z,21.95
2023-02-06T18:13:53.023Z,22.02
2023-02-06T18:14:53.102Z,21.89
2023-02-06T18:15:53.231Z,22.06
2023-02-06T18:16:53.331Z,21.87
2023-02-06T18:17:53.344Z,21.90
2023-02-06T18:18:53.352Z,21.81
2023-02-06T18:19:53.371Z,21.84
2023-02-06T18:20:53.432Z,21.80
2023-02-06T18:21:53.484Z,21.84
2023-02-06T18:22:53.577Z,21.90
2023-02-06T18:23:53.646Z,21.93
2023-02-06T18:24:53.723Z,21.81
2023-02-06T18:25:53.706Z,21.81
2023-02-06T18:26:53.751Z,21.81
2023-02-06T18:27:53.847Z,21.87
2023-02-06T18:28:53.842Z,21.84
2023-02-06T18:29:53.893Z,21.86
2023-02-06T18:30:53.980Z,21.97
2023-02-06T18:31:54.077Z,21.79
2023-02-06T18:32:54.039Z,21.72
2023-02-06T18:33:54.111Z,21.79
2023-02-06T18:34:54.166Z,21.76
2023-02-06T18:35:54.205Z,21.87
2023-02-06T18:36:54.233Z,21.79
2023-02-06T18:37:54.300Z,21.85
2023-02-06T18:38:54.311Z,21.79
2023-02-06T18:39:54.348Z,21.76
2023-02-06T18:40:54.420Z,21.76
2023-02-06T18:41:54.417Z,21.66
2023-02-06T18:42:54.476Z,21.70
2023-02-06T18:43:54.509Z,21.76
2023-02-06T18:44:54.604Z,21.81
2023-02-06T18:45:54.597Z,21.78
2023-02-06T18:46:54.708Z,21.79
2023-02-06T18:47:54.727Z,21.67
2023-02-06T18:48:54.774Z,21.64
2023-02-06T18:49:54.885Z,21.69
2023-02-06T18:50:56.481Z,21.37
2023-02-06T18:51:55.047Z,21.52
2023-02-06T18:52:55.082Z,21.70
2023-02-06T18:53:55.161Z,21.75
2023-02-06T18:54:55.240Z,21.67
2023-02-06T18:55:55.229Z,21.66
2023-02-06T18:56:55.331Z,21.69
2023-02-06T18:57:55.404Z,21.55
2023-02-06T18:58:55.460Z,21.73
2023-02-06T18:59:55.471Z,21.69
2023-02-06T19:00:55.568Z,21.70
2023-02-06T19:01:55.619Z,21.69
2023-02-06T19:02:55.587Z,21.53
2023-02-06T19:03:55.640Z,21.50
2023-02-06T19:04:55.699Z,21.62
2023-02-06T19:05:55.714Z,21.61
2023-02-06T19:06:55.774Z,21.49
2023-02-06T19:07:55.801Z,21.49
2023-02-06T19:08:55.832Z,21.67
2023-02-06T19:09:55.885Z,21.49
2023-02-06T19:10:55.939Z,21.62
2023-02-06T19:11:56.023Z,21.35
2023-02-06T19:12:56.055Z,21.55
2023-02-06T19:13:56.139Z,21.73
2023-02-06T19:14:56.125Z,21.63
2023-02-06T19:15:56.198Z,21.57
2023-02-06T19:16:56.213Z,21.75
2023-02-06T19:17:56.371Z,21.64
2023-02-06T19:18:56.313Z,21.57
2023-02-06T19:19:56.331Z,21.50
2023-02-06T19:20:56.390Z,21.50
2023-02-06T19:21:56.440Z,21.46
2023-02-06T19:22:56.494Z,21.44
2023-02-06T19:23:56.520Z,21.55
2023-02-06T19:24:56.570Z,21.46
2023-02-06T19:25:56.604Z,21.49
2023-02-06T19:26:56.667Z,21.47
2023-02-06T19:27:56.748Z,21.46
2023-02-06T19:28:56.795Z,21.53
2023-02-06T19:29:56.793Z,21.40
2023-02-06T19:30:56.948Z,21.37
2023-02-06T19:31:56.938Z,21.43
2023-02-06T19:32:56.937Z,21.49
2023-02-06T19:33:57.026Z,21.52
2023-02-06T19:34:57.089Z,21.43
2023-02-06T19:35:57.103Z,21.49
2023-02-06T19:36:57.147Z,21.46
2023-02-06T19:37:57.225Z,21.40
2023-02-06T19:38:57.231Z,21.50
2023-02-06T19:39:57.269Z,21.49
2023-02-06T19:40:57.313Z,21.37
2023-02-06T19:41:57.330Z,21.34
2023-02-06T19:42:57.411Z,21.37
2023-02-06T19:43:57.405Z,21.41
2023-02-06T19:44:57.424Z,21.40
2023-02-06T19:45:57.436Z,21.55
2023-02-06T19:46:57.581Z,21.38
2023-02-06T19:47:57.495Z,21.34
2023-02-06T19:48:57.496Z,21.34
2023-02-06T19:49:57.553Z,21.32
2023-02-06T19:50:57.522Z,21.36
2023-02-06T19:51:57.551Z,21.37
2023-02-06T19:52:57.625Z,21.38
2023-02-06T19:53:57.637Z,21.30
2023-02-06T19:54:57.675Z,21.41
2023-02-06T19:55:57.702Z,21.30
2023-02-06T19:56:57.693Z,21.32
2023-02-06T19:57:57.751Z,21.38
2023-02-06T19:58:57.815Z,21.34
2023-02-06T19:59:57.785Z,21.34
2023-02-06T20:00:57.847Z,21.29
2023-02-06T20:01:57.842Z,21.36
2023-02-06T20:02:57.890Z,21.36
2023-02-06T20:03:57.880Z,21.32
2023-02-06T20:04:57.881Z,21.27
2023-02-06T20:05:57.873Z,21.26
2023-02-06T20:06:57.857Z,21.23
2023-02-06T20:07:57.925Z,21.26
2023-02-06T20:08:57.933Z,21.24
2023-02-06T20:09:57.894Z,21.20
2023-02-06T20:10:57.891Z,21.12
2023-02-06T20:11:57.920Z,21.17
2023-02-06T20:12:57.947Z,21.09
2023-02-06T20:13:57.932Z,21.27
2023-02-06T20:14:57.943Z,21.14
2023-02-06T20:15:57.980Z,21.14
2023-02-06T20:16:57.962Z,21.14
2023-02-06T20:17:57.975Z,21.17
2023-02-06T20:18:58.021Z,21.08
2023-02-06T20:19:57.959Z,20.97
2023-02-06T20:20:58.002Z,21.03
2023-02-06T20:21:57.950Z,21.12
2023-02-06T20:22:57.991Z,21.12
2023-02-06T20:23:57.955Z,21.05
2023-02-06T20:24:57.960Z,20.99
2023-02-06T20:25:57.964Z,21.14
2023-02-06T20:26:58.005Z,21.03
2023-02-06T20:27:58.034Z,21.12
2023-02-06T20:28:58.005Z,21.12
2023-02-06T20:29:58.025Z,21.19
2023-02-06T20:30:58.059Z,21.13
2023-02-06T20:31:58.097Z,21.08
2023-02-06T20:32:58.020Z,21.08
2023-02-06T20:33:58.030Z,21.08
2023-02-06T20:34:58.030Z,21.00
2023-02-06T20:35:57.999Z,21.09
2023-02-06T20:36:58.023Z,21.09
2023-02-06T20:37:58.025Z,21.18
2023-02-06T20:39:57.994Z,20.91
2023-02-06T20:40:57.990Z,20.97
2023-02-06T20:41:58.045Z,21.04
2023-02-06T20:42:58.011Z,21.09
2023-02-06T20:43:58.054Z,21.12
2023-02-06T20:44:58.065Z,21.00
2023-02-06T20:45:58.084Z,20.91
2023-02-06T20:46:58.071Z,21.06
2023-02-06T20:47:58.082Z,20.99